Time;durP1;ratioP1;P1;durP2;ratioP2;P2;SDS_P1;SDS_P2;PMS_P1;PMS_P2;Temp;Humidity;BMP_temperature;BMP_pressure;BME280_temperature;BME280_humidity;BME280_pressure;Samples;Min_cycle;Max_cycle;Signal;HPM_P1;HPM_P2
2023/06/25 00:02:08;;;;;;;6.78;6.18;;;;;;;-144.30;52.39;84108.50;5053745;28;20646;-75
2023/06/25 00:04:35;;;;;;;8.35;6.70;;;;;;;-144.30;52.56;84112.47;5053854;28;20685;-75
2023/06/25 00:07:03;;;;;;;7.63;6.93;;;;;;;-144.30;53.03;84120.41;5053924;28;20291;-76
2023/06/25 00:09:30;;;;;;;7.00;6.50;;;;;;;-144.30;52.97;84162.16;5053677;28;20295;-74
2023/06/25 00:11:57;;;;;;;6.75;6.25;;;;;;;-144.30;52.66;84156.19;5053222;28;20307;-75
2023/06/25 00:14:24;;;;;;;6.50;6.00;;;;;;;-144.30;53.22;84178.03;5053362;28;20247;-74
2023/06/25 00:16:57;;;;;;;6.47;6.03;;;;;;;-144.30;53.22;84156.19;5054190;28;20196;-75
2023/06/25 00:19:26;;;;;;;7.07;5.60;;;;;;;-144.30;53.14;84066.75;5053657;28;20197;-75
2023/06/25 00:21:53;;;;;;;6.45;5.82;;;;;;;-144.30;53.77;84178.03;5053416;28;20274;-75
2023/06/25 00:24:20;;;;;;;6.72;6.13;;;;;;;-144.30;53.70;84182.00;5053741;28;20231;-75
2023/06/25 00:26:47;;;;;;;7.03;6.15;;;;;;;-144.30;53.64;84213.81;5053128;28;20258;-75
2023/06/25 00:29:14;;;;;;;6.53;5.97;;;;;;;-144.30;53.67;84174.06;5052902;28;20196;-75
2023/06/25 00:31:42;;;;;;;7.70;6.30;;;;;;;-144.30;53.43;84193.94;5052654;28;20268;-75
2023/06/25 00:34:09;;;;;;;6.18;5.68;;;;;;;-144.30;53.31;84142.28;5052710;28;20227;-75
2023/06/25 00:36:40;;;;;;;6.70;6.10;;;;;;;-144.30;53.14;84178.03;5053027;28;20197;-75
2023/06/25 00:39:07;;;;;;;6.40;5.80;;;;;;;-144.30;53.17;84174.06;5053558;28;20276;-75
2023/06/25 00:41:34;;;;;;;6.75;6.22;;;;;;;-144.30;53.10;84211.81;5052635;28;20207;-75
2023/06/25 00:44:06;;;;;;;6.65;6.10;;;;;;;-144.30;53.34;84235.66;5052498;28;20205;-75
2023/06/25 00:46:33;;;;;;;7.50;6.45;;;;;;;-144.30;53.41;84211.81;5052832;28;20192;-75
2023/06/25 00:49:05;;;;;;;6.78;6.10;;;;;;;-144.30;53.35;84219.78;5052283;28;20193;-75
2023/06/25 00:51:33;;;;;;;7.00;6.32;;;;;;;-144.30;53.65;84249.59;5052740;28;20251;-76
2023/06/25 00:54:05;;;;;;;9.02;6.15;;;;;;;-144.30;54.04;84267.47;5052852;28;20565;-75
2023/06/25 00:56:33;;;;;;;7.68;6.18;;;;;;;-144.30;54.06;84273.44;5053023;28;20196;-75
2023/06/25 00:59:02;;;;;;;6.03;5.53;;;;;;;-144.30;54.16;84243.63;5052037;28;20205;-75
2023/06/25 01:01:36;;;;;;;7.05;6.32;;;;;;;-144.30;54.38;84253.56;5052769;28;20218;-74
2023/06/25 01:04:07;;;;;;;6.95;5.82;;;;;;;-144.30;54.72;84279.38;5052533;28;20192;-75
2023/06/25 01:06:40;;;;;;;6.93;6.43;;;;;;;-144.30;54.48;84303.25;5052530;28;20274;-74
2023/06/25 01:09:11;;;;;;;7.13;6.53;;;;;;;-144.30;55.25;84752.41;5051861;28;20716;-74
2023/06/25 01:11:38;;;;;;;6.90;6.30;;;;;;;-144.30;55.63;84311.19;5051962;28;20295;-75
2023/06/25 01:14:05;;;;;;;7.13;5.75;;;;;;;-144.30;55.56;84271.44;5051894;28;20201;-75
2023/06/25 01:16:32;;;;;;;6.53;5.95;;;;;;;-144.30;55.08;84257.53;5051986;28;20201;-75
2023/06/25 01:19:02;;;;;;;7.45;6.53;;;;;;;-144.30;55.32;84313.19;5051700;28;20199;-76
2023/06/25 01:21:31;;;;;;;7.55;6.53;;;;;;;-144.30;55.67;84368.81;5052086;28;20193;-76
2023/06/25 01:24:00;;;;;;;6.53;6.13;;;;;;;-144.30;55.16;84307.22;5051999;28;20227;-74
2023/06/25 01:26:27;;;;;;;7.55;6.10;;;;;;;-144.30;54.87;84281.38;5051917;28;20220;-74
2023/06/25 01:28:55;;;;;;;6.82;6.35;;;;;;;-144.30;54.94;85042.59;5051801;28;20203;-75
2023/06/25 01:31:24;;;;;;;6.55;6.05;;;;;;;-144.30;55.25;84327.09;5051713;28;20189;-75
2023/06/25 01:33:51;;;;;;;6.70;6.07;;;;;;;-144.30;55.39;84335.03;5051502;28;20676;-76
2023/06/25 01:36:18;;;;;;;7.03;5.65;;;;;;;-144.30;55.62;84372.78;5051022;28;25063;-74
2023/06/25 01:38:45;;;;;;;7.30;6.68;;;;;;;-144.30;55.88;84374.78;5051854;28;20636;-73
2023/06/25 01:41:14;;;;;;;6.78;5.65;;;;;;;-144.30;56.22;84368.81;5051267;28;20201;-74
2023/06/25 01:43:41;;;;;;;6.50;6.05;;;;;;;-144.30;56.27;84303.25;5060469;28;20197;-74
2023/06/25 01:46:08;;;;;;;6.65;6.15;;;;;;;-144.30;56.10;84360.88;5071230;28;20223;-75
2023/06/25 01:48:35;;;;;;;6.60;6.10;;;;;;;-144.30;56.27;84354.91;5071317;28;20196;-75
2023/06/25 01:51:02;;;;;;;6.57;5.97;;;;;;;-144.30;56.40;84342.97;5072802;28;20687;-83
2023/06/25 01:53:28;;;;;;;7.35;6.20;;;;;;;-144.30;56.02;84378.75;5072580;28;20660;-75
2023/06/25 01:55:55;;;;;;;6.68;6.13;;;;;;;-144.30;55.79;84380.75;5071321;28;20192;-76
2023/06/25 01:58:24;;;;;;;6.22;5.57;;;;;;;-144.30;56.10;84378.75;5071377;28;20660;-76
2023/06/25 02:00:51;;;;;;;8.35;6.18;;;;;;;-144.30;55.57;84364.84;5071283;28;20246;-76
2023/06/25 02:03:17;;;;;;;6.70;6.20;;;;;;;-144.30;55.66;84390.69;5071004;28;20692;-74
2023/06/25 02:05:44;;;;;;;6.63;6.03;;;;;;;-144.30;56.09;84350.94;5071255;28;20328;-75
2023/06/25 02:08:11;;;;;;;6.70;6.10;;;;;;;-144.30;56.73;84408.56;5070932;28;25070;-74
2023/06/25 02:10:38;;;;;;;9.23;6.63;;;;;;;-144.30;56.96;84366.84;5070460;28;25091;-74
2023/06/25 02:13:05;;;;;;;6.75;6.25;;;;;;;-144.30;57.24;84374.78;5070475;28;25057;-74
2023/06/25 02:15:33;;;;;;;8.13;7.00;;;;;;;-144.30;57.53;84404.59;5071106;28;20165;-75
2023/06/25 02:18:00;;;;;;;8.52;7.32;;;;;;;-144.30;57.43;84378.75;5070797;28;20228;-75
2023/06/25 02:20:27;;;;;;;8.07;6.95;;;;;;;-144.30;57.76;84400.63;5070845;28;25055;-74
2023/06/25 02:22:54;;;;;;;7.82;7.20;;;;;;;-144.30;57.98;84378.75;5073382;28;20288;-83
2023/06/25 02:25:21;;;;;;;8.27;7.00;;;;;;;-144.30;58.71;84440.38;5073008;28;25080;-82
2023/06/25 02:27:48;;;;;;;8.07;7.32;;;;;;;-144.30;58.71;84414.53;5073223;28;20162;-83
2023/06/25 02:30:15;;;;;;;8.00;7.07;;;;;;;-144.30;58.59;84454.28;5072061;28;20202;-82
2023/06/25 02:32:43;;;;;;;7.47;6.90;;;;;;;-144.30;58.66;84418.50;5072851;28;20560;-81
2023/06/25 02:35:10;;;;;;;7.57;6.85;;;;;;;-144.30;58.72;84358.88;5072206;28;25098;-81
2023/06/25 02:37:37;;;;;;;8.20;7.57;;;;;;;-144.30;58.69;84507.94;5072622;28;25156;-83
2023/06/25 02:40:05;;;;;;;17.25;7.10;;;;;;;-144.30;59.08;84305.22;5072289;28;20202;-83
2023/06/25 02:42:32;;;;;;;8.88;7.80;;;;;;;-144.30;59.44;84434.41;5071941;28;25094;-81
2023/06/25 02:44:58;;;;;;;8.13;7.32;;;;;;;-144.30;59.53;84352.91;5060919;28;20594;-74
2023/06/25 02:47:25;;;;;;;10.98;7.68;;;;;;;-144.30;59.71;84350.94;5050722;28;20574;-74
2023/06/25 02:49:54;;;;;;;8.38;7.68;;;;;;;-144.30;59.66;84386.72;5050068;28;25118;-74
2023/06/25 02:52:20;;;;;;;7.65;7.10;;;;;;;-144.30;60.21;84404.59;5049656;28;25055;-74
2023/06/25 02:54:47;;;;;;;8.23;7.60;;;;;;;-144.30;60.15;84410.56;5047899;28;25085;-74
2023/06/25 02:57:14;;;;;;;8.25;7.45;;;;;;;-144.30;60.28;84382.72;5049996;28;25086;-74
2023/06/25 02:59:41;;;;;;;8.50;7.22;;;;;;;-144.30;60.33;84339.00;5050540;28;20213;-74
2023/06/25 03:02:08;;;;;;;9.18;8.25;;;;;;;-144.30;60.73;84368.81;5050397;28;20210;-75
2023/06/25 03:04:35;;;;;;;12.27;7.97;;;;;;;-144.30;61.16;84414.53;5051875;28;25147;-75
2023/06/25 03:07:04;;;;;;;10.63;7.88;;;;;;;-144.30;61.95;84494.03;5050307;28;20331;-74
2023/06/25 03:09:30;;;;;;;8.80;7.65;;;;;;;-144.30;61.93;84418.50;5050200;28;25068;-74
2023/06/25 03:11:57;;;;;;;8.60;7.82;;;;;;;-144.30;61.83;84406.59;5049785;28;20190;-73
2023/06/25 03:14:24;;;;;;;8.55;7.50;;;;;;;-144.30;62.37;84420.50;5050043;28;20205;-75
2023/06/25 03:16:51;;;;;;;8.40;7.45;;;;;;;-144.30;63.11;84390.69;5051437;28;20289;-73
2023/06/25 03:19:19;;;;;;;8.50;7.65;;;;;;;-144.30;63.75;84438.38;5050616;28;20237;-74
2023/06/25 03:21:46;;;;;;;7.63;7.03;;;;;;;-144.30;63.14;84337.03;5059754;28;25076;-74
2023/06/25 03:24:14;;;;;;;8.43;7.72;;;;;;;-144.30;63.20;84382.72;5052314;28;25069;-74
2023/06/25 03:26:41;;;;;;;8.38;7.45;;;;;;;-144.30;63.34;84386.72;5050203;28;25122;-74
2023/06/25 03:29:08;;;;;;;8.75;7.50;;;;;;;-144.30;63.76;84386.72;5049699;28;20217;-75
2023/06/25 03:31:35;;;;;;;9.63;7.60;;;;;;;-144.30;64.72;84350.94;5055224;28;20168;-75
2023/06/25 03:34:02;;;;;;;9.15;8.20;;;;;;;-144.30;64.74;84337.03;5033662;28;20251;-75
2023/06/25 03:36:29;;;;;;;8.95;8.05;;;;;;;-144.30;65.05;84341.00;5029834;28;20203;-75
2023/06/25 03:38:58;;;;;;;9.55;8.68;;;;;;;-144.30;66.00;84348.94;5045035;28;25107;-74
2023/06/25 03:41:26;;;;;;;10.85;9.75;;;;;;;-144.30;66.73;84313.19;5045312;28;20214;-76
2023/06/25 03:43:53;;;;;;;10.18;9.27;;;;;;;-144.30;67.16;84315.16;5043020;28;25077;-75
2023/06/25 03:46:20;;;;;;;10.68;9.18;;;;;;;-144.30;67.36;84311.19;5040186;28;20243;-75
2023/06/25 03:48:47;;;;;;;12.25;9.05;;;;;;;-144.30;67.55;84309.19;5031284;28;20206;-76
2023/06/25 03:51:14;;;;;;;12.30;10.70;;;;;;;-144.30;67.38;84291.31;5030870;28;20222;-76
2023/06/25 03:53:41;;;;;;;10.98;9.98;;;;;;;-144.30;66.78;84267.47;5029288;28;20215;-75
2023/06/25 03:56:08;;;;;;;10.15;9.23;;;;;;;-144.30;63.30;84100.53;5029097;28;20368;-74
2023/06/25 03:58:37;;;;;;;11.52;10.43;;;;;;;-144.30;58.51;83903.81;5038782;28;20645;-74
2023/06/25 04:01:04;;;;;;;10.05;9.18;;;;;;;-144.30;53.83;83679.28;5049098;28;20724;-74
2023/06/25 04:03:31;;;;;;;14.20;9.80;;;;;;;-144.30;50.58;83506.41;5066157;28;25127;-76
2023/06/25 04:05:57;;;;;;;9.98;8.98;;;;;;;-144.30;47.05;83206.41;5071897;28;20242;-76
2023/06/25 04:08:24;;;;;;;9.02;8.43;;;;;;;-144.30;44.42;83109.06;5074009;28;20200;-77
2023/06/25 04:10:51;;;;;;;9.52;8.82;;;;;;;-144.30;42.05;82862.75;5074386;28;20235;-76
2023/06/25 04:13:18;;;;;;;10.40;9.43;;;;;;;-144.30;39.87;82693.88;5066306;28;20209;-77
2023/06/25 04:15:46;;;;;;;9.18;8.43;;;;;;;-144.30;38.82;82491.28;5050783;28;20585;-75
2023/06/25 04:18:13;;;;;;;9.43;8.35;;;;;;;-144.30;37.37;82288.69;5039821;28;20195;-75
2023/06/25 04:20:40;;;;;;;9.35;8.32;;;;;;;-144.30;36.96;82264.88;5041234;28;20198;-74
2023/06/25 04:23:07;;;;;;;8.98;8.27;;;;;;;-144.30;36.29;82185.41;5035099;28;20623;-77
2023/06/25 04:25:34;;;;;;;8.98;8.18;;;;;;;-144.30;35.50;82046.41;5046026;28;20223;-77
2023/06/25 04:28:01;;;;;;;8.70;7.90;;;;;;;-144.30;34.38;81833.91;5040621;28;20193;-78
2023/06/25 04:30:28;;;;;;;10.80;7.68;;;;;;;-144.30;33.61;81655.19;5034352;28;20215;-78
2023/06/25 04:32:56;;;;;;;9.23;8.35;;;;;;;-144.30;33.36;81669.06;5039043;28;20219;-80
2023/06/25 04:35:23;;;;;;;8.70;8.00;;;;;;;-144.30;32.72;81434.75;5053698;28;20216;-80
2023/06/25 04:37:50;;;;;;;8.07;7.45;;;;;;;-144.30;31.94;81236.19;5054360;28;20581;-79
2023/06/25 04:40:16;;;;;;;7.30;6.68;;;;;;;-144.30;31.14;81087.28;5053583;28;20577;-78
2023/06/25 04:42:43;;;;;;;9.52;6.85;;;;;;;-144.30;31.06;81059.50;5052265;28;20875;-77
2023/06/25 04:45:10;;;;;;;7.20;6.60;;;;;;;-144.30;30.83;81426.81;5050408;28;20679;-78
2023/06/25 04:47:37;;;;;;;6.07;5.57;;;;;;;-144.30;30.15;80779.56;5053513;28;20311;-77
2023/06/25 04:50:07;;;;;;;6.90;6.35;;;;;;;-144.30;30.35;80866.91;5047246;28;20208;-78
2023/06/25 04:52:33;;;;;;;6.90;6.40;;;;;;;-144.30;30.36;80823.22;5042426;28;20211;-77
2023/06/25 04:55:00;;;;;;;6.90;6.40;;;;;;;-144.30;31.02;81127.00;5042343;28;20464;-78
2023/06/25 04:57:27;;;;;;;6.57;6.07;;;;;;;-144.30;31.23;81212.38;5040350;28;20215;-79
2023/06/25 04:59:54;;;;;;;7.22;6.70;;;;;;;-144.30;30.95;81101.19;5045820;28;20212;-80
2023/06/25 05:02:21;;;;;;;7.85;6.85;;;;;;;-144.30;30.77;80962.19;5041618;28;20232;-78
2023/06/25 05:04:48;;;;;;;6.47;5.88;;;;;;;-144.30;30.83;81128.97;5042864;28;20207;-82
2023/06/25 05:07:16;;;;;;;7.00;6.40;;;;;;;-144.30;31.17;81256.06;5042425;28;20680;-77
2023/06/25 05:09:43;;;;;;;7.78;6.95;;;;;;;-144.30;31.55;81399.00;5038551;28;20197;-80
2023/06/25 05:12:11;;;;;;;8.95;7.80;;;;;;;-144.30;31.92;81428.81;5037920;28;20631;-81
2023/06/25 05:14:38;;;;;;;8.73;8.00;;;;;;;-144.30;31.83;81408.94;5040235;28;20246;-80
2023/06/25 05:17:05;;;;;;;8.93;7.95;;;;;;;-144.30;31.39;81379.16;5045784;28;20204;-80
2023/06/25 05:19:32;;;;;;;8.80;8.15;;;;;;;-144.30;31.63;81399.00;5044416;28;20218;-79
2023/06/25 05:21:59;;;;;;;9.77;8.85;;;;;;;-144.30;32.27;81639.28;5043591;28;20257;-81
2023/06/25 05:24:28;;;;;;;9.02;8.32;;;;;;;-144.30;32.69;81706.81;5044915;28;20200;-79
2023/06/25 05:26:55;;;;;;;9.77;8.98;;;;;;;-144.30;32.73;81696.88;5046677;28;20501;-82
2023/06/25 05:29:22;;;;;;;9.50;8.73;;;;;;;-144.30;32.40;81559.84;5040030;28;20196;-82
2023/06/25 05:31:49;;;;;;;9.50;8.75;;;;;;;-144.30;32.17;81482.41;5045166;28;20651;-82
2023/06/25 05:34:16;;;;;;;9.73;8.73;;;;;;;-144.30;31.90;81518.16;5045423;28;20215;-80
2023/06/25 05:36:43;;;;;;;9.30;8.45;;;;;;;-144.30;32.02;81496.31;5046265;28;20246;-82
2023/06/25 05:39:10;;;;;;;9.73;8.95;;;;;;;-144.30;31.16;81260.03;5052248;28;20295;-83
2023/06/25 05:41:40;;;;;;;13.63;8.82;;;;;;;-144.30;30.76;81081.34;5053726;28;20220;-81
2023/06/25 05:44:07;;;;;;;10.23;9.30;;;;;;;-144.30;30.06;80934.41;5054385;28;20544;-81
2023/06/25 05:46:34;;;;;;;8.35;7.80;;;;;;;-144.30;29.81;80851.03;5054103;28;20255;-83
2023/06/25 05:49:01;;;;;;;9.45;8.65;;;;;;;-144.30;29.82;80851.03;5053501;28;20206;-83
2023/06/25 05:51:28;;;;;;;9.85;8.90;;;;;;;-144.30;29.92;80978.09;5054062;28;20714;-78
2023/06/25 05:53:55;;;;;;;11.82;9.10;;;;;;;-144.30;29.82;80960.22;5051346;28;20224;-75
2023/06/25 05:56:22;;;;;;;13.40;9.00;;;;;;;-144.30;29.93;80862.94;5050439;28;20199;-76
2023/06/25 05:58:51;;;;;;;14.75;8.45;;;;;;;-144.30;29.81;80718.00;5048753;28;20292;-77
2023/06/25 06:01:17;;;;;;;11.07;8.38;;;;;;;-144.30;29.98;80807.34;5050868;28;20196;-76
2023/06/25 06:03:44;;;;;;;8.98;8.20;;;;;;;-144.30;30.20;80870.88;5051488;28;20196;-76
2023/06/25 06:06:12;;;;;;;11.50;7.72;;;;;;;-144.30;30.20;80811.31;5050029;28;20223;-79
2023/06/25 06:08:39;;;;;;;8.45;7.68;;;;;;;-144.30;30.33;80866.91;5042552;28;20288;-81
2023/06/25 06:11:06;;;;;;;7.95;7.20;;;;;;;-144.30;30.86;80886.75;5042733;28;20226;-82
2023/06/25 06:13:33;;;;;;;8.40;7.53;;;;;;;-144.30;31.09;81097.22;5032937;28;20669;-83
2023/06/25 06:16:01;;;;;;;6.78;6.15;;;;;;;-144.30;31.51;81156.78;5033276;28;20240;-81
2023/06/25 06:18:28;;;;;;;7.20;6.70;;;;;;;-144.30;31.58;81127.00;5033003;28;20201;-79
2023/06/25 06:20:55;;;;;;;6.82;6.18;;;;;;;-144.30;32.09;81311.66;5032987;28;20193;-77
2023/06/25 06:23:22;;;;;;;7.18;6.03;;;;;;;-144.30;32.37;81373.19;5031626;28;20228;-78
2023/06/25 06:25:49;;;;;;;13.57;7.60;;;;;;;-144.30;32.58;81410.94;5032295;28;20655;-81
2023/06/25 06:28:15;;;;;;;12.85;7.95;;;;;;;-144.30;32.23;81305.69;5030880;28;20205;-83
2023/06/25 06:30:42;;;;;;;8.50;6.40;;;;;;;-144.30;31.88;81307.69;5040405;28;20200;-78
2023/06/25 06:33:11;;;;;;;8.57;6.35;;;;;;;-144.30;31.76;81170.69;5045648;28;20207;-78
2023/06/25 06:35:38;;;;;;;6.40;5.82;;;;;;;-144.30;31.66;81232.22;5032918;28;20292;-79
2023/06/25 06:38:05;;;;;;;6.85;6.25;;;;;;;-144.30;31.90;81258.03;5048983;28;20676;-77
2023/06/25 06:40:32;;;;;;;7.50;5.70;;;;;;;-144.30;32.56;81488.38;5051088;28;20200;-76
2023/06/25 06:42:59;;;;;;;7.20;6.47;;;;;;;-144.30;33.09;81669.06;5050956;28;20657;-77
2023/06/25 06:45:26;;;;;;;6.40;5.70;;;;;;;-144.30;33.86;81907.38;5050284;28;20205;-77
2023/06/25 06:47:53;;;;;;;6.45;6.05;;;;;;;-144.30;34.48;81837.88;5050642;28;20226;-78
2023/06/25 06:50:21;;;;;;;8.70;5.93;;;;;;;-144.30;34.11;81885.53;5050074;28;20195;-77
2023/06/25 06:52:48;;;;;;;6.82;6.20;;;;;;;-144.30;33.99;81740.56;5050014;28;20258;-75
2023/06/25 06:55:15;;;;;;;7.75;6.90;;;;;;;-144.30;33.80;81744.53;5050166;28;20578;-78
2023/06/25 06:57:42;;;;;;;9.27;8.07;;;;;;;-144.30;33.61;81686.94;5051118;28;20196;-82
2023/06/25 07:00:10;;;;;;;6.22;5.82;;;;;;;-144.30;33.58;81659.16;5052780;28;20207;-79
2023/06/25 07:02:37;;;;;;;7.50;6.90;;;;;;;-144.30;33.53;81506.25;5052141;28;20196;-79
2023/06/25 07:05:07;;;;;;;6.68;5.88;;;;;;;-144.30;33.43;81510.22;5038639;28;20224;-77
2023/06/25 07:07:35;;;;;;;6.35;5.80;;;;;;;-144.30;33.37;81629.34;5043074;28;20248;-77
2023/06/25 07:10:02;;;;;;;10.55;6.97;;;;;;;-144.30;33.48;81587.66;5049726;28;20290;-79
2023/06/25 07:12:29;;;;;;;9.35;7.22;;;;;;;-144.30;34.35;81796.16;5049923;28;20218;-80
2023/06/25 07:14:56;;;;;;;7.95;7.22;;;;;;;-144.30;34.95;81893.47;5051965;28;20197;-80
2023/06/25 07:17:24;;;;;;;9.75;8.88;;;;;;;-144.30;35.04;81867.66;5051614;28;20601;-77
2023/06/25 07:19:51;;;;;;;9.02;6.93;;;;;;;-144.30;34.54;81839.84;5042852;28;20292;-77
2023/06/25 07:22:18;;;;;;;8.20;7.45;;;;;;;-144.30;34.33;81780.28;5043570;28;20201;-75
2023/06/25 07:24:46;;;;;;;7.10;6.50;;;;;;;-144.30;33.79;81758.44;5049790;28;20207;-76
2023/06/25 07:27:13;;;;;;;7.65;6.97;;;;;;;-144.30;34.38;81831.91;5047511;28;20217;-73
2023/06/25 07:29:40;;;;;;;7.15;6.53;;;;;;;-144.30;34.45;81927.22;5048350;28;20204;-73
2023/06/25 07:32:08;;;;;;;7.95;6.60;;;;;;;-144.30;35.04;82018.59;5046312;28;20219;-72
2023/06/25 07:34:35;;;;;;;7.20;6.60;;;;;;;-144.30;35.16;82048.38;5049803;28;20354;-77
2023/06/25 07:37:02;;;;;;;7.22;6.53;;;;;;;-144.30;33.70;81782.25;5051320;28;20216;-76
2023/06/25 07:39:30;;;;;;;15.32;7.32;;;;;;;-144.30;33.60;81677.00;5050148;28;20203;-74
2023/06/25 07:41:58;;;;;;;12.48;6.90;;;;;;;-144.30;33.45;81772.34;5052117;28;20257;-75
2023/06/25 07:44:25;;;;;;;10.13;6.80;;;;;;;-144.30;33.70;81855.75;5051767;28;20200;-73
2023/06/25 07:46:52;;;;;;;8.35;7.60;;;;;;;-144.30;33.84;81839.84;5052318;28;20220;-73
2023/06/25 07:49:19;;;;;;;7.30;6.60;;;;;;;-144.30;33.35;81482.41;5052781;28;20300;-74
2023/06/25 07:51:49;;;;;;;7.22;6.70;;;;;;;-144.30;32.78;81681.00;5051818;28;20196;-73
2023/06/25 07:54:16;;;;;;;9.13;6.63;;;;;;;-144.30;32.88;81637.31;5051447;28;20291;-73
2023/06/25 07:56:44;;;;;;;8.23;7.13;;;;;;;-144.30;32.26;81545.97;5051498;28;20192;-73
2023/06/25 07:59:13;;;;;;;10.05;6.97;;;;;;;-144.30;31.40;81438.72;5052757;28;20301;-72
2023/06/25 08:01:40;;;;;;;6.90;6.40;;;;;;;-144.30;31.62;81426.81;5052775;28;20564;-73
2023/06/25 08:04:07;;;;;;;6.70;6.18;;;;;;;-144.30;31.31;81319.59;5052833;28;20204;-73
2023/06/25 08:06:34;;;;;;;7.25;6.60;;;;;;;-144.30;30.75;81269.94;5052742;28;20571;-73
2023/06/25 08:09:01;;;;;;;8.07;6.57;;;;;;;-144.30;30.52;81115.09;5053424;28;20574;-73
2023/06/25 08:11:28;;;;;;;8.15;6.18;;;;;;;-144.30;29.97;80970.16;5053730;28;20228;-74
2023/06/25 08:13:55;;;;;;;7.88;7.18;;;;;;;-144.30;29.57;80990.00;5053138;28;20636;-74
2023/06/25 08:16:23;;;;;;;8.00;7.22;;;;;;;-144.30;29.73;80962.19;5053078;28;20286;-74
2023/06/25 08:18:50;;;;;;;7.13;6.30;;;;;;;-144.30;29.19;80894.69;5052695;28;20196;-74
2023/06/25 08:21:17;;;;;;;9.13;7.20;;;;;;;-144.30;29.11;80751.75;5053852;28;20196;-77
2023/06/25 08:23:44;;;;;;;7.10;6.40;;;;;;;-144.30;28.56;80656.47;5053605;28;20196;-76
2023/06/25 08:26:12;;;;;;;8.15;7.32;;;;;;;-144.30;28.68;80610.81;5053569;28;20196;-77
2023/06/25 08:28:40;;;;;;;7.38;6.80;;;;;;;-144.30;28.73;80862.94;5054019;28;20310;-77
2023/06/25 08:31:07;;;;;;;7.90;7.28;;;;;;;-144.30;29.12;80872.88;5054233;28;20196;-78
2023/06/25 08:33:35;;;;;;;7.50;6.80;;;;;;;-144.30;28.49;80569.13;5054046;28;20257;-76
2023/06/25 08:36:02;;;;;;;7.07;6.50;;;;;;;-144.30;28.37;80596.91;5054580;28;20655;-78
2023/06/25 08:38:31;;;;;;;8.77;7.75;;;;;;;-144.30;28.25;80533.38;5053056;28;20184;-76
2023/06/25 08:40:58;;;;;;;9.90;7.20;;;;;;;-144.30;28.36;80616.75;5053269;28;20589;-78
2023/06/25 08:43:26;;;;;;;7.57;6.95;;;;;;;-144.30;29.13;80950.28;5053277;28;20273;-77
2023/06/25 08:45:52;;;;;;;12.48;7.25;;;;;;;-144.30;29.70;81067.44;5053307;28;20202;-76
2023/06/25 08:48:20;;;;;;;8.65;7.68;;;;;;;-144.30;29.95;81335.47;5052772;28;20219;-77
2023/06/25 08:50:52;;;;;;;8.63;8.02;;;;;;;-144.30;30.35;81414.91;5053636;28;20206;-76
2023/06/25 08:53:19;;;;;;;7.78;7.07;;;;;;;-144.30;30.47;81448.66;5051201;28;20257;-77
2023/06/25 08:55:48;;;;;;;7.43;6.72;;;;;;;-144.30;30.38;81506.25;5054004;28;20210;-77
2023/06/25 08:58:15;;;;;;;7.25;6.75;;;;;;;-144.30;29.54;81925.25;5054344;28;20200;-76
2023/06/25 09:00:42;;;;;;;10.98;7.10;;;;;;;-144.30;29.87;81450.66;5054183;28;20283;-77
2023/06/25 09:03:09;;;;;;;8.05;7.13;;;;;;;-144.30;30.09;81551.91;5054250;28;20224;-76
2023/06/25 09:05:36;;;;;;;10.32;6.70;;;;;;;-144.30;30.15;81452.63;5055121;28;20200;-75
2023/06/25 09:08:05;;;;;;;15.15;13.27;;;;;;;-144.30;30.26;81621.41;5052729;28;20227;-74
2023/06/25 09:10:32;;;;;;;8.20;7.60;;;;;;;-144.30;29.36;81460.56;5052625;28;20323;-73
2023/06/25 09:13:02;;;;;;;7.40;6.90;;;;;;;-144.30;29.22;81434.75;5052935;28;20206;-74
2023/06/25 09:15:29;;;;;;;9.23;8.43;;;;;;;-144.30;29.84;81325.56;5052525;28;20195;-72
2023/06/25 09:17:57;;;;;;;12.60;7.75;;;;;;;-144.30;30.17;81617.44;5052146;28;20203;-73
2023/06/25 09:20:25;;;;;;;9.20;8.52;;;;;;;-144.30;30.45;81543.97;5051872;28;20196;-75
2023/06/25 09:22:53;;;;;;;8.25;7.60;;;;;;;-144.30;30.53;81597.59;5052535;28;20206;-73
2023/06/25 09:25:28;;;;;;;8.20;7.53;;;;;;;-144.30;30.18;81474.47;5052341;28;20200;-73
2023/06/25 09:27:55;;;;;;;8.10;7.22;;;;;;;-144.30;30.45;81619.44;5052399;28;20211;-73
2023/06/25 09:30:23;;;;;;;8.35;7.60;;;;;;;-144.30;30.31;81492.34;5051463;28;20201;-74
2023/06/25 09:32:51;;;;;;;8.45;7.68;;;;;;;-144.30;30.01;81339.44;5052419;28;20192;-74
2023/06/25 09:35:22;;;;;;;7.60;7.10;;;;;;;-144.30;29.68;81367.25;5051314;28;20283;-74
2023/06/25 09:37:50;;;;;;;7.72;7.15;;;;;;;-144.30;29.82;81399.00;5051429;28;20200;-74
2023/06/25 09:40:17;;;;;;;8.73;7.85;;;;;;;-144.30;29.95;81287.81;5051200;28;20203;-74
2023/06/25 09:42:49;;;;;;;8.38;7.75;;;;;;;-144.30;29.48;81273.91;5051768;28;20196;-75
2023/06/25 09:45:17;;;;;;;8.32;7.75;;;;;;;-144.30;29.61;81262.00;5051424;28;20238;-74
2023/06/25 09:47:46;;;;;;;8.88;8.18;;;;;;;-144.30;29.63;81420.84;5051290;28;20608;-74
2023/06/25 09:50:18;;;;;;;8.68;7.80;;;;;;;-144.30;30.30;81454.63;5051424;28;20206;-73
2023/06/25 09:52:51;;;;;;;8.82;8.05;;;;;;;-144.30;30.21;81486.38;5051060;28;20253;-73
2023/06/25 09:55:20;;;;;;;8.18;7.57;;;;;;;-144.30;29.91;81406.97;5050718;28;20196;-73
2023/06/25 09:57:50;;;;;;;8.57;7.85;;;;;;;-144.30;29.75;81379.16;5050446;28;20192;-73
2023/06/25 10:00:17;;;;;;;8.20;7.25;;;;;;;-144.30;30.04;81375.19;5050546;28;20231;-74
2023/06/25 10:02:45;;;;;;;12.20;7.65;;;;;;;-144.30;29.69;81303.72;5049979;28;20286;-74
2023/06/25 10:05:12;;;;;;;8.30;7.70;;;;;;;-144.30;29.70;81416.88;5050821;28;20189;-74
2023/06/25 10:07:39;;;;;;;8.70;8.07;;;;;;;-144.30;29.65;81486.38;5050825;28;20224;-74
2023/06/25 10:10:07;;;;;;;8.55;7.95;;;;;;;-144.30;30.21;81625.38;5050316;28;20591;-73
2023/06/25 10:12:37;;;;;;;8.32;7.72;;;;;;;-144.30;30.56;81754.47;5050755;28;20203;-74
2023/06/25 10:15:06;;;;;;;8.52;7.70;;;;;;;-144.30;31.15;81923.25;5050084;28;20215;-75
2023/06/25 10:17:35;;;;;;;8.40;7.90;;;;;;;-144.30;31.47;81935.19;5050524;28;20200;-75
2023/06/25 10:20:05;;;;;;;9.95;8.10;;;;;;;-144.30;31.86;82046.41;5050515;28;20197;-75
2023/06/25 10:22:34;;;;;;;9.05;8.23;;;;;;;-144.30;32.11;82113.91;5050816;28;20640;-72
2023/06/25 10:25:01;;;;;;;12.90;9.05;;;;;;;-144.30;32.15;82199.31;5050343;28;20367;-73
2023/06/25 10:27:29;;;;;;;9.32;8.45;;;;;;;-144.30;32.47;82213.22;5050177;28;20220;-74
2023/06/25 10:29:57;;;;;;;9.02;8.23;;;;;;;-144.30;32.58;82276.78;5051049;28;20192;-74
2023/06/25 10:32:28;;;;;;;9.27;8.43;;;;;;;-144.30;32.51;82105.97;5051045;28;20196;-74
2023/06/25 10:34:55;;;;;;;9.15;8.52;;;;;;;-144.30;32.98;82239.03;5051074;28;20211;-75
2023/06/25 10:37:28;;;;;;;9.48;8.82;;;;;;;-144.30;32.87;82211.25;5050848;28;20192;-75
2023/06/25 10:40:03;;;;;;;10.10;9.07;;;;;;;-144.30;32.95;82254.94;5051913;28;20207;-74
2023/06/25 10:42:30;;;;;;;8.77;8.18;;;;;;;-144.30;32.57;82245.00;5052671;28;20198;-73
2023/06/25 10:44:57;;;;;;;9.60;8.82;;;;;;;-144.30;32.63;82252.94;5052914;28;20592;-73
2023/06/25 10:47:25;;;;;;;9.48;8.52;;;;;;;-144.30;32.88;82189.38;5051814;28;20200;-73
2023/06/25 10:49:52;;;;;;;9.32;8.70;;;;;;;-144.30;32.69;82229.09;5051906;28;20199;-74
2023/06/25 10:52:19;;;;;;;9.23;8.55;;;;;;;-144.30;32.95;82113.91;5051471;28;20201;-74
2023/06/25 10:54:47;;;;;;;9.30;8.40;;;;;;;-144.30;33.06;82233.09;5051300;28;20193;-73
2023/06/25 10:57:15;;;;;;;9.07;8.23;;;;;;;-144.30;33.08;82250.97;5051254;28;20205;-72
2023/06/25 10:59:44;;;;;;;9.10;8.48;;;;;;;-144.30;33.21;82258.91;5051333;28;20211;-74
2023/06/25 11:02:13;;;;;;;9.43;8.57;;;;;;;-144.30;33.75;82294.66;5051049;28;20196;-75
2023/06/25 11:04:42;;;;;;;10.35;9.50;;;;;;;-144.30;33.41;82368.13;5051357;28;20270;-74
2023/06/25 11:07:11;;;;;;;9.50;8.70;;;;;;;-144.30;33.23;82395.94;5050934;28;20228;-75
2023/06/25 11:09:38;;;;;;;9.82;8.93;;;;;;;-144.30;33.32;82338.34;5050935;28;20262;-73
2023/06/25 11:12:07;;;;;;;9.75;8.85;;;;;;;-144.30;33.52;82233.09;5050112;28;20335;-73
2023/06/25 11:14:34;;;;;;;9.25;8.38;;;;;;;-144.30;33.40;82314.50;5050456;28;20212;-74
2023/06/25 11:17:01;;;;;;;9.20;8.50;;;;;;;-144.30;33.55;82372.13;5050812;28;20204;-73
2023/06/25 11:19:30;;;;;;;10.35;9.48;;;;;;;-144.30;33.72;82391.97;5050839;28;20195;-74